createdAt,value
2023-12-24T00:02:18.269Z,100.00
2023-12-24T00:04:45.546Z,100.00
2023-12-24T00:07:12.504Z,100.00
2023-12-24T00:09:39.523Z,100.00
2023-12-24T00:12:07.674Z,100.00
2023-12-24T00:14:35.270Z,100.00
2023-12-24T00:17:02.821Z,100.00
2023-12-24T00:19:30.117Z,100.00
2023-12-24T00:21:57.577Z,100.00
2023-12-24T00:24:24.502Z,100.00
2023-12-24T00:26:51.626Z,100.00
2023-12-24T00:29:19.859Z,100.00
2023-12-24T00:31:47.073Z,100.00
2023-12-24T00:34:14.266Z,100.00
2023-12-24T00:36:41.334Z,100.00
2023-12-24T00:39:09.002Z,100.00
2023-12-24T00:41:39.413Z,100.00
2023-12-24T00:44:07.195Z,100.00
2023-12-24T00:46:34.770Z,100.00
2023-12-24T00:49:02.135Z,100.00
2023-12-24T00:51:29.389Z,100.00
2023-12-24T00:53:56.416Z,100.00
2023-12-24T00:56:23.596Z,100.00
2023-12-24T00:58:50.897Z,100.00
2023-12-24T01:01:18.171Z,100.00
2023-12-24T01:03:45.908Z,100.00
2023-12-24T01:06:13.452Z,100.00
2023-12-24T01:08:40.943Z,100.00
2023-12-24T01:11:08.438Z,100.00
2023-12-24T01:13:35.458Z,100.00
2023-12-24T01:16:02.925Z,100.00
2023-12-24T01:18:30.169Z,100.00
2023-12-24T01:20:57.906Z,100.00
2023-12-24T01:23:25.267Z,100.00
2023-12-24T01:25:52.773Z,100.00
2023-12-24T01:28:19.990Z,100.00
2023-12-24T01:30:47.168Z,100.00
2023-12-24T01:33:15.241Z,100.00
2023-12-24T01:35:45.124Z,100.00
2023-12-24T01:38:12.527Z,100.00
2023-12-24T01:40:45.659Z,100.00
2023-12-24T01:43:12.958Z,100.00
2023-12-24T01:45:40.154Z,100.00
2023-12-24T01:48:07.722Z,100.00
2023-12-24T01:50:37.311Z,100.00
2023-12-24T01:53:05.710Z,100.00
2023-12-24T01:55:32.829Z,100.00
2023-12-24T01:58:00.114Z,100.00
2023-12-24T02:00:27.580Z,100.00
2023-12-24T02:02:55.895Z,100.00
2023-12-24T02:05:23.590Z,100.00
2023-12-24T02:07:51.781Z,100.00
2023-12-24T02:10:20.114Z,100.00
2023-12-24T02:12:47.692Z,100.00
2023-12-24T02:15:15.041Z,100.00
2023-12-24T02:17:44.557Z,100.00
2023-12-24T02:20:12.268Z,100.00
2023-12-24T02:22:39.426Z,100.00
2023-12-24T02:25:06.876Z,100.00
2023-12-24T02:27:55.068Z,100.00
2023-12-24T02:30:27.355Z,100.00
2023-12-24T02:32:58.977Z,100.00
2023-12-24T02:35:33.999Z,100.00
2023-12-24T02:38:01.787Z,100.00
2023-12-24T02:40:28.974Z,100.00
2023-12-24T02:42:55.962Z,100.00
2023-12-24T02:45:23.030Z,100.00
2023-12-24T02:47:50.058Z,100.00
2023-12-24T02:50:19.795Z,100.00
2023-12-24T02:52:47.705Z,100.00
2023-12-24T02:55:14.880Z,100.00
2023-12-24T02:57:42.103Z,100.00
2023-12-24T03:00:09.889Z,100.00
2023-12-24T03:02:37.707Z,100.00
2023-12-24T03:05:05.389Z,100.00
2023-12-24T03:07:32.896Z,100.00
2023-12-24T03:10:00.024Z,100.00
2023-12-24T03:12:27.439Z,100.00
2023-12-24T03:14:55.012Z,100.00
2023-12-24T03:17:23.233Z,100.00
2023-12-24T03:19:50.724Z,100.00
2023-12-24T03:22:17.744Z,100.00
2023-12-24T03:24:44.874Z,100.00
2023-12-24T03:27:11.924Z,100.00
2023-12-24T03:29:39.209Z,100.00
2023-12-24T03:32:06.721Z,100.00
2023-12-24T03:34:33.942Z,100.00
2023-12-24T03:37:01.074Z,100.00
2023-12-24T03:39:28.167Z,100.00
2023-12-24T03:41:55.259Z,100.00
2023-12-24T03:44:22.573Z,100.00
2023-12-24T03:46:49.714Z,100.00
2023-12-24T03:49:17.545Z,100.00
2023-12-24T03:51:44.819Z,100.00
2023-12-24T03:54:12.014Z,100.00
2023-12-24T03:56:39.681Z,100.00
2023-12-24T03:59:06.890Z,100.00
2023-12-24T04:01:33.974Z,100.00
2023-12-24T04:04:01.769Z,100.00
2023-12-24T04:06:28.913Z,100.00
2023-12-24T04:08:59.255Z,100.00
2023-12-24T04:11:26.445Z,100.00
2023-12-24T04:13:53.704Z,100.00
2023-12-24T04:16:20.703Z,100.00
2023-12-24T04:18:48.299Z,100.00
2023-12-24T04:21:15.550Z,100.00
2023-12-24T04:23:42.804Z,100.00
2023-12-24T04:26:10.511Z,100.00
2023-12-24T04:28:37.717Z,100.00
2023-12-24T04:31:05.619Z,100.00
2023-12-24T04:33:32.787Z,100.00
2023-12-24T04:36:00.048Z,100.00
2023-12-24T04:38:27.373Z,100.00
2023-12-24T04:40:54.920Z,100.00
2023-12-24T04:43:22.573Z,100.00
2023-12-24T04:45:49.791Z,100.00
2023-12-24T04:48:17.002Z,100.00
2023-12-24T04:50:44.348Z,100.00
2023-12-24T04:53:11.603Z,100.00
2023-12-24T04:55:38.936Z,100.00
2023-12-24T04:58:06.072Z,100.00
2023-12-24T05:00:33.196Z,100.00
2023-12-24T05:03:00.367Z,100.00
2023-12-24T05:05:27.974Z,100.00
2023-12-24T05:07:55.077Z,100.00
2023-12-24T05:10:22.406Z,100.00
2023-12-24T05:12:49.628Z,100.00
2023-12-24T05:15:18.126Z,100.00
2023-12-24T05:17:45.473Z,100.00
2023-12-24T05:20:15.304Z,100.00
2023-12-24T05:22:42.498Z,100.00
2023-12-24T05:25:09.635Z,100.00
2023-12-24T05:27:36.807Z,100.00
2023-12-24T05:30:04.281Z,100.00
2023-12-24T05:32:31.642Z,100.00
2023-12-24T05:34:59.343Z,100.00
2023-12-24T05:37:26.655Z,100.00
2023-12-24T05:39:53.598Z,100.00
2023-12-24T05:42:20.845Z,100.00
2023-12-24T05:44:47.880Z,100.00
2023-12-24T05:47:15.235Z,100.00
2023-12-24T05:49:42.942Z,100.00
2023-12-24T05:52:10.017Z,100.00
2023-12-24T05:54:37.259Z,100.00
2023-12-24T05:57:04.881Z,100.00
2023-12-24T05:59:32.085Z,100.00
2023-12-24T06:01:59.257Z,100.00
2023-12-24T06:04:26.511Z,100.00
2023-12-24T06:06:53.795Z,100.00
2023-12-24T06:09:21.196Z,100.00
2023-12-24T06:11:48.549Z,100.00
2023-12-24T06:14:15.975Z,100.00
2023-12-24T06:16:43.019Z,100.00
2023-12-24T06:19:11.263Z,100.00
2023-12-24T06:21:40.225Z,100.00
2023-12-24T06:24:07.528Z,100.00
2023-12-24T06:26:35.042Z,100.00
2023-12-24T06:29:02.169Z,100.00
2023-12-24T06:31:29.438Z,100.00
2023-12-24T06:33:57.034Z,100.00
2023-12-24T06:36:24.154Z,100.00
2023-12-24T06:38:51.489Z,100.00
2023-12-24T06:41:18.702Z,100.00
2023-12-24T06:43:45.602Z,100.00
2023-12-24T06:46:13.962Z,100.00
2023-12-24T06:48:41.728Z,100.00
2023-12-24T06:51:09.275Z,100.00
2023-12-24T06:53:37.265Z,100.00
2023-12-24T06:56:05.209Z,100.00
2023-12-24T06:58:32.682Z,100.00
2023-12-24T07:00:59.714Z,100.00
2023-12-24T07:03:26.986Z,100.00
2023-12-24T07:05:55.250Z,100.00
2023-12-24T07:08:26.320Z,100.00
2023-12-24T07:10:53.462Z,100.00
2023-12-24T07:13:20.467Z,100.00
2023-12-24T07:15:47.725Z,100.00
2023-12-24T07:18:15.042Z,100.00
2023-12-24T07:20:42.490Z,100.00
2023-12-24T07:23:09.601Z,100.00
2023-12-24T07:25:36.809Z,100.00
2023-12-24T07:28:04.353Z,100.00
2023-12-24T07:30:31.629Z,100.00
2023-12-24T07:32:59.216Z,100.00
2023-12-24T07:35:26.884Z,100.00
2023-12-24T07:37:54.069Z,100.00
2023-12-24T07:40:21.453Z,99.87
2023-12-24T07:42:48.758Z,99.94
2023-12-24T07:45:16.297Z,99.15
2023-12-24T07:47:43.775Z,99.87
2023-12-24T07:50:10.985Z,99.75
2023-12-24T07:52:38.441Z,99.58
2023-12-24T07:55:05.976Z,99.36
2023-12-24T07:57:33.128Z,99.07
2023-12-24T08:00:00.078Z,99.34
2023-12-24T08:02:27.435Z,99.59
2023-12-24T08:04:56.791Z,98.29
2023-12-24T08:07:24.888Z,98.57
2023-12-24T08:09:52.382Z,98.69
2023-12-24T08:12:19.613Z,98.20
2023-12-24T08:14:46.661Z,97.88
2023-12-24T08:17:13.842Z,97.88
2023-12-24T08:19:40.812Z,97.48
2023-12-24T08:22:07.965Z,96.78
2023-12-24T08:24:35.500Z,97.27
2023-12-24T08:27:03.322Z,97.18
2023-12-24T08:29:32.632Z,97.21
2023-12-24T08:32:00.093Z,97.43
2023-12-24T08:34:27.909Z,97.64
2023-12-24T08:36:55.005Z,97.24
2023-12-24T08:39:22.279Z,97.32
2023-12-24T08:41:49.489Z,97.87
2023-12-24T08:44:17.576Z,97.78
2023-12-24T08:46:49.335Z,97.36
2023-12-24T08:49:17.122Z,97.02
2023-12-24T08:51:44.552Z,96.85
2023-12-24T08:54:11.699Z,97.22
2023-12-24T08:56:39.043Z,97.05
2023-12-24T08:59:08.811Z,97.18
2023-12-24T09:01:41.090Z,96.41
2023-12-24T09:04:09.104Z,97.11
2023-12-24T09:06:39.308Z,96.87
2023-12-24T09:09:06.558Z,96.75
2023-12-24T09:11:33.649Z,96.82
2023-12-24T09:14:00.912Z,96.64
2023-12-24T09:16:27.940Z,96.69
2023-12-24T09:18:55.221Z,96.67
2023-12-24T09:21:22.407Z,96.41
2023-12-24T09:23:49.502Z,96.12
2023-12-24T09:26:16.689Z,96.02
2023-12-24T09:28:43.797Z,96.40
2023-12-24T09:31:10.917Z,96.32
2023-12-24T09:33:38.190Z,95.46
2023-12-24T09:36:09.487Z,95.48
2023-12-24T09:38:37.601Z,95.70
2023-12-24T09:41:04.835Z,95.32
2023-12-24T09:43:32.551Z,95.19
2023-12-24T09:46:00.565Z,94.93
2023-12-24T09:48:27.873Z,95.25
2023-12-24T09:50:55.323Z,95.19
2023-12-24T09:53:23.538Z,94.34
2023-12-24T09:55:50.687Z,94.50
2023-12-24T09:58:18.988Z,94.55
2023-12-24T10:00:46.518Z,94.90
2023-12-24T10:03:13.648Z,94.84
2023-12-24T10:06:00.909Z,94.53
2023-12-24T10:08:28.314Z,94.26
2023-12-24T10:10:55.446Z,94.43
2023-12-24T10:13:23.293Z,94.64
2023-12-24T10:16:04.777Z,94.49
2023-12-24T10:18:33.021Z,94.57
2023-12-24T10:21:07.989Z,94.18
2023-12-24T10:23:35.381Z,94.58
2023-12-24T10:26:08.271Z,94.94
2023-12-24T10:28:35.746Z,95.14
2023-12-24T10:31:10.448Z,95.13
2023-12-24T10:33:41.446Z,95.22
2023-12-24T10:36:09.311Z,94.68
2023-12-24T10:38:37.883Z,94.96
2023-12-24T10:41:07.518Z,94.95
2023-12-24T10:43:35.224Z,94.93
2023-12-24T10:46:03.643Z,95.07
2023-12-24T10:48:30.790Z,95.12
2023-12-24T10:50:58.007Z,94.81
2023-12-24T10:53:25.251Z,95.30
2023-12-24T10:56:05.454Z,95.20
2023-12-24T10:59:01.245Z,95.14
2023-12-24T11:01:28.782Z,95.03
2023-12-24T11:03:55.917Z,95.16
2023-12-24T11:06:38.204Z,95.14
2023-12-24T11:09:07.562Z,94.97
2023-12-24T11:11:54.148Z,95.16
2023-12-24T11:14:46.017Z,95.10
2023-12-24T11:17:40.337Z,95.19
2023-12-24T11:20:20.812Z,95.36
2023-12-24T11:23:06.438Z,94.96
2023-12-24T11:25:48.318Z,94.71
2023-12-24T11:28:24.790Z,94.87
2023-12-24T11:30:52.233Z,94.91
2023-12-24T11:33:35.771Z,95.07
2023-12-24T11:36:10.022Z,95.02
2023-12-24T11:38:37.778Z,94.94
2023-12-24T11:41:08.697Z,95.08
2023-12-24T11:43:36.941Z,95.11
2023-12-24T11:46:04.544Z,94.68
2023-12-24T11:48:34.461Z,94.83
2023-12-24T11:51:08.993Z,94.80
2023-12-24T11:53:40.214Z,94.98
2023-12-24T11:56:12.862Z,94.84
2023-12-24T11:58:43.363Z,94.87
2023-12-24T12:01:11.140Z,94.55
2023-12-24T12:03:38.493Z,94.59
2023-12-24T12:06:06.497Z,95.30
2023-12-24T12:08:34.169Z,95.29
2023-12-24T12:11:01.586Z,95.36
2023-12-24T12:13:29.857Z,95.45
2023-12-24T12:15:57.010Z,95.26
2023-12-24T12:18:24.066Z,95.21
2023-12-24T12:20:51.259Z,95.52
2023-12-24T12:23:20.728Z,95.17
2023-12-24T12:25:48.090Z,95.37
2023-12-24T12:28:15.014Z,95.60
2023-12-24T12:30:42.355Z,95.47
2023-12-24T12:33:09.839Z,96.07
2023-12-24T12:35:37.079Z,95.76
2023-12-24T12:38:04.593Z,95.77
2023-12-24T12:40:36.447Z,95.61
2023-12-24T12:43:09.500Z,95.68
2023-12-24T12:45:37.523Z,95.83
2023-12-24T12:48:05.619Z,95.84
2023-12-24T12:50:32.920Z,96.13
2023-12-24T12:53:00.086Z,96.14
2023-12-24T12:55:27.277Z,96.21
2023-12-24T12:57:54.411Z,96.03
2023-12-24T13:00:22.639Z,96.15
2023-12-24T13:02:51.325Z,96.06
2023-12-24T13:05:28.922Z,96.23
2023-12-24T13:07:57.702Z,96.31
2023-12-24T13:10:31.749Z,96.12
2023-12-24T13:13:23.962Z,96.15
2023-12-24T13:16:08.815Z,96.41
2023-12-24T13:18:37.271Z,96.29
2023-12-24T13:21:06.033Z,96.58
2023-12-24T13:23:33.472Z,96.57
2023-12-24T13:26:04.085Z,96.48
2023-12-24T13:28:31.229Z,96.49
2023-12-24T13:30:58.546Z,96.65
2023-12-24T13:33:25.971Z,96.61
2023-12-24T13:35:53.543Z,96.97
2023-12-24T13:38:21.960Z,96.62
2023-12-24T13:40:49.388Z,96.38
2023-12-24T13:43:16.844Z,97.24
2023-12-24T13:45:44.521Z,97.16
2023-12-24T13:48:14.881Z,96.87
2023-12-24T13:50:43.505Z,96.95
2023-12-24T13:53:19.435Z,96.97
2023-12-24T13:55:59.488Z,97.28
2023-12-24T13:58:28.344Z,97.31
2023-12-24T14:00:57.926Z,97.36
2023-12-24T14:03:26.694Z,97.41
2023-12-24T14:05:54.566Z,96.96
2023-12-24T14:08:24.602Z,96.96
2023-12-24T14:10:51.847Z,97.12
2023-12-24T14:13:19.031Z,97.30
2023-12-24T14:15:46.214Z,97.00
2023-12-24T14:18:13.576Z,97.16
2023-12-24T14:20:41.030Z,97.02
2023-12-24T14:23:09.727Z,96.83
2023-12-24T14:25:37.000Z,97.09
2023-12-24T14:28:04.906Z,97.21
2023-12-24T14:30:32.280Z,97.29
2023-12-24T14:33:01.148Z,97.32
2023-12-24T14:35:29.995Z,97.15
2023-12-24T14:37:57.622Z,97.38
2023-12-24T14:40:24.999Z,97.44
2023-12-24T14:42:52.841Z,97.28
2023-12-24T14:45:20.376Z,97.25
2023-12-24T14:47:48.075Z,97.16
2023-12-24T14:50:15.375Z,97.41
2023-12-24T14:52:42.485Z,97.63
2023-12-24T14:55:10.042Z,97.40
2023-12-24T14:57:37.422Z,97.41
2023-12-24T15:00:06.552Z,97.58
2023-12-24T15:02:33.838Z,97.64
2023-12-24T15:05:01.780Z,97.73
2023-12-24T15:07:31.751Z,97.46
2023-12-24T15:10:00.524Z,97.85
2023-12-24T15:12:27.776Z,97.47
2023-12-24T15:14:56.347Z,97.98
2023-12-24T15:17:23.821Z,97.92
2023-12-24T15:19:52.147Z,98.01
2023-12-24T15:22:19.330Z,97.93
2023-12-24T15:24:46.418Z,98.00
2023-12-24T15:27:13.498Z,98.45
2023-12-24T15:29:40.715Z,98.13
2023-12-24T15:32:09.260Z,98.26
2023-12-24T15:34:36.357Z,98.28
2023-12-24T15:37:03.530Z,98.47
2023-12-24T15:39:31.668Z,98.40
2023-12-24T15:42:01.346Z,98.41
2023-12-24T15:44:28.441Z,98.84
2023-12-24T15:46:55.523Z,98.68
2023-12-24T15:49:22.564Z,98.73
2023-12-24T15:51:49.819Z,99.09
2023-12-24T15:54:19.242Z,98.77
2023-12-24T15:56:46.467Z,99.45
2023-12-24T15:59:13.690Z,99.03
2023-12-24T16:01:44.970Z,99.20
2023-12-24T16:04:13.503Z,99.35
2023-12-24T16:06:42.896Z,99.39
2023-12-24T16:09:10.781Z,99.78
2023-12-24T16:11:38.290Z,99.67
2023-12-24T16:14:08.421Z,99.43
2023-12-24T16:16:36.250Z,99.65
2023-12-24T16:19:04.708Z,99.79
2023-12-24T16:21:40.186Z,100.00
2023-12-24T16:24:08.772Z,100.00
2023-12-24T16:26:36.436Z,99.91
2023-12-24T16:29:03.682Z,100.00
2023-12-24T16:31:30.855Z,100.00
2023-12-24T16:33:58.117Z,100.00
2023-12-24T16:36:26.052Z,100.00
2023-12-24T16:38:55.199Z,100.00
2023-12-24T16:41:23.980Z,100.00
2023-12-24T16:43:51.987Z,100.00
2023-12-24T16:46:19.163Z,100.00
2023-12-24T16:48:46.589Z,100.00
2023-12-24T16:51:17.945Z,100.00
2023-12-24T16:53:49.171Z,100.00
2023-12-24T16:56:16.689Z,100.00
2023-12-24T16:58:44.639Z,100.00
2023-12-24T17:01:12.101Z,100.00
2023-12-24T17:03:39.589Z,100.00
2023-12-24T17:06:10.530Z,100.00
2023-12-24T17:08:39.602Z,100.00
2023-12-24T17:11:07.376Z,100.00
2023-12-24T17:13:34.865Z,100.00
2023-12-24T17:16:01.970Z,100.00
2023-12-24T17:18:33.080Z,100.00
2023-12-24T17:21:00.911Z,100.00
2023-12-24T17:23:28.204Z,100.00
2023-12-24T17:25:55.316Z,100.00
2023-12-24T17:28:22.493Z,100.00
2023-12-24T17:30:49.733Z,100.00
2023-12-24T17:33:17.998Z,100.00
2023-12-24T17:35:45.885Z,100.00
2023-12-24T17:38:13.364Z,100.00
2023-12-24T17:40:40.481Z,100.00
2023-12-24T17:43:07.731Z,100.00
2023-12-24T17:45:34.897Z,100.00
2023-12-24T17:48:09.625Z,100.00
2023-12-24T17:50:44.652Z,100.00
2023-12-24T17:53:13.010Z,100.00
2023-12-24T17:55:40.539Z,100.00
2023-12-24T17:58:07.761Z,100.00
2023-12-24T18:00:38.237Z,100.00
2023-12-24T18:03:05.519Z,100.00
2023-12-24T18:05:32.631Z,100.00
2023-12-24T18:07:59.839Z,100.00
2023-12-24T18:10:26.981Z,100.00
2023-12-24T18:12:54.381Z,100.00
2023-12-24T18:15:21.907Z,100.00
2023-12-24T18:17:49.206Z,100.00
2023-12-24T18:20:17.191Z,100.00
2023-12-24T18:22:44.549Z,100.00
2023-12-24T18:25:11.744Z,100.00
2023-12-24T18:27:38.888Z,100.00
2023-12-24T18:30:06.632Z,100.00
2023-12-24T18:32:33.914Z,100.00
2023-12-24T18:35:01.188Z,100.00
2023-12-24T18:37:31.379Z,100.00
2023-12-24T18:39:58.691Z,100.00
2023-12-24T18:42:25.895Z,100.00
2023-12-24T18:44:53.449Z,100.00
2023-12-24T18:47:20.802Z,100.00
2023-12-24T18:49:47.964Z,100.00
2023-12-24T18:52:18.079Z,100.00
2023-12-24T18:54:47.165Z,100.00
2023-12-24T18:57:15.104Z,100.00
2023-12-24T18:59:42.245Z,100.00
2023-12-24T19:02:09.368Z,100.00
2023-12-24T19:04:37.259Z,100.00
2023-12-24T19:07:07.777Z,100.00
2023-12-24T19:09:35.401Z,100.00
2023-12-24T19:12:02.776Z,100.00
2023-12-24T19:14:29.952Z,100.00
2023-12-24T19:16:57.158Z,100.00
2023-12-24T19:19:24.185Z,100.00
2023-12-24T19:21:51.498Z,100.00
2023-12-24T19:24:23.398Z,100.00
2023-12-24T19:26:53.645Z,100.00
2023-12-24T19:29:20.853Z,100.00
2023-12-24T19:31:49.104Z,100.00
2023-12-24T19:34:16.289Z,100.00
2023-12-24T19:36:44.194Z,100.00
2023-12-24T19:39:11.272Z,100.00
2023-12-24T19:41:41.367Z,100.00
2023-12-24T19:44:08.536Z,100.00
2023-12-24T19:46:35.791Z,100.00
2023-12-24T19:49:03.158Z,100.00
2023-12-24T19:51:30.354Z,100.00
2023-12-24T19:53:57.457Z,100.00
2023-12-24T19:56:24.960Z,100.00
2023-12-24T19:58:53.025Z,100.00
2023-12-24T20:01:30.958Z,100.00
2023-12-24T20:04:02.986Z,100.00
2023-12-24T20:06:30.834Z,100.00
2023-12-24T20:08:58.105Z,100.00
2023-12-24T20:11:25.449Z,100.00
2023-12-24T20:13:52.534Z,100.00
2023-12-24T20:16:19.761Z,100.00
2023-12-24T20:18:47.012Z,100.00
2023-12-24T20:21:14.241Z,100.00
2023-12-24T20:23:45.592Z,100.00
2023-12-24T20:26:12.810Z,100.00
2023-12-24T20:28:39.980Z,100.00
2023-12-24T20:31:12.991Z,100.00
2023-12-24T20:33:42.205Z,100.00
2023-12-24T20:36:10.959Z,100.00
2023-12-24T20:38:38.468Z,100.00
2023-12-24T20:41:05.681Z,100.00
2023-12-24T20:43:33.287Z,100.00
2023-12-24T20:46:00.490Z,100.00
2023-12-24T20:48:28.155Z,100.00
2023-12-24T20:50:55.770Z,100.00
2023-12-24T20:53:24.088Z,100.00
2023-12-24T20:55:52.121Z,100.00
2023-12-24T20:58:19.378Z,100.00
2023-12-24T21:00:46.390Z,100.00
2023-12-24T21:03:13.683Z,100.00
2023-12-24T21:05:41.003Z,100.00
2023-12-24T21:08:08.282Z,100.00
2023-12-24T21:10:38.493Z,100.00
2023-12-24T21:13:05.659Z,100.00
2023-12-24T21:15:32.814Z,100.00
2023-12-24T21:18:00.071Z,100.00
2023-12-24T21:20:27.389Z,100.00
2023-12-24T21:22:54.747Z,100.00
2023-12-24T21:25:22.016Z,100.00
2023-12-24T21:27:49.276Z,100.00
2023-12-24T21:30:16.592Z,100.00
2023-12-24T21:32:43.936Z,100.00
2023-12-24T21:35:11.190Z,100.00
2023-12-24T21:37:38.400Z,100.00
2023-12-24T21:40:07.028Z,100.00
2023-12-24T21:42:34.140Z,100.00
2023-12-24T21:45:01.264Z,100.00
2023-12-24T21:47:29.070Z,100.00
2023-12-24T21:49:56.729Z,100.00
2023-12-24T21:52:23.948Z,100.00
2023-12-24T21:54:51.275Z,100.00
2023-12-24T21:57:20.215Z,100.00
2023-12-24T21:59:47.296Z,100.00
2023-12-24T22:02:14.484Z,100.00
2023-12-24T22:04:41.910Z,100.00
2023-12-24T22:07:09.098Z,100.00
2023-12-24T22:10:01.086Z,100.00
2023-12-24T22:12:28.471Z,100.00
2023-12-24T22:14:55.756Z,100.00
2023-12-24T22:17:23.178Z,100.00
2023-12-24T22:19:50.356Z,100.00
2023-12-24T22:22:17.514Z,100.00
2023-12-24T22:24:44.618Z,100.00
2023-12-24T22:27:11.697Z,100.00
2023-12-24T22:29:41.739Z,100.00
2023-12-24T22:32:08.832Z,100.00
2023-12-24T22:34:36.222Z,100.00
2023-12-24T22:37:03.896Z,100.00
2023-12-24T22:39:31.245Z,100.00
2023-12-24T22:41:58.396Z,100.00
2023-12-24T22:44:26.874Z,100.00
2023-12-24T22:46:53.959Z,100.00
2023-12-24T22:49:21.529Z,100.00
2023-12-24T22:51:48.767Z,100.00
2023-12-24T22:54:16.286Z,100.00
2023-12-24T22:56:43.470Z,100.00
2023-12-24T22:59:10.791Z,100.00
2023-12-24T23:01:44.841Z,100.00
2023-12-24T23:04:12.298Z,100.00
2023-12-24T23:06:39.516Z,100.00
2023-12-24T23:09:07.041Z,100.00
2023-12-24T23:11:34.222Z,100.00
2023-12-24T23:14:01.416Z,100.00
2023-12-24T23:16:28.607Z,100.00
2023-12-24T23:18:55.827Z,100.00
2023-12-24T23:21:23.107Z,100.00
2023-12-24T23:23:50.364Z,100.00
2023-12-24T23:26:17.572Z,100.00
2023-12-24T23:28:44.728Z,100.00
2023-12-24T23:31:11.882Z,100.00
2023-12-24T23:33:39.043Z,100.00
2023-12-24T23:36:12.275Z,100.00
2023-12-24T23:38:40.435Z,100.00
2023-12-24T23:41:07.750Z,100.00
2023-12-24T23:43:37.758Z,100.00
2023-12-24T23:46:06.631Z,100.00
2023-12-24T23:48:33.970Z,100.00
2023-12-24T23:51:01.308Z,100.00
2023-12-24T23:53:28.440Z,100.00
2023-12-24T23:55:55.626Z,100.00
2023-12-24T23:58:22.645Z,100.00
